Time;durP1;ratioP1;P1;durP2;ratioP2;P2;SDS_P1;SDS_P2;PMS_P1;PMS_P2;Temp;Humidity;BMP_temperature;BMP_pressure;BME280_temperature;BME280_humidity;BME280_pressure;Samples;Min_cycle;Max_cycle;Signal;HPM_P1;HPM_P2
2023/07/06 00:00:37;;;;;;;4.72;2.28;;;;;;;-145.41;100.00;58600.66;5036629;28;20025;-76
2023/07/06 00:03:03;;;;;;;5.97;2.30;;;;;;;-145.41;100.00;58600.66;5037684;28;20494;-76
2023/07/06 00:05:29;;;;;;;5.45;2.33;;;;;;;-145.41;100.00;58600.66;5042632;28;20120;-76
2023/07/06 00:07:56;;;;;;;5.72;2.17;;;;;;;-145.41;100.00;58600.66;5038615;28;20037;-76
2023/07/06 00:10:22;;;;;;;4.45;1.92;;;;;;;-145.41;100.00;58600.66;5035232;28;20043;-76
2023/07/06 00:12:47;;;;;;;4.72;2.22;;;;;;;-145.41;100.00;58600.66;5041511;28;20033;-76
2023/07/06 00:15:13;;;;;;;3.60;1.95;;;;;;;-145.41;100.00;58600.66;5040512;28;20511;-75
2023/07/06 00:17:38;;;;;;;6.07;2.70;;;;;;;-145.41;100.00;58600.66;5035255;28;20046;-76
2023/07/06 00:20:07;;;;;;;4.55;2.10;;;;;;;-145.41;100.00;58600.66;5043656;28;20061;-76
2023/07/06 00:22:36;;;;;;;4.95;1.77;;;;;;;-145.41;100.00;58600.66;5041340;28;20128;-75
2023/07/06 00:25:01;;;;;;;3.20;1.77;;;;;;;-145.41;100.00;58600.66;5044648;28;20049;-75
2023/07/06 00:27:28;;;;;;;4.93;2.35;;;;;;;-145.41;100.00;58600.66;5043215;28;20124;-75
2023/07/06 00:30:07;;;;;;;4.07;2.28;;;;;;;-145.41;100.00;58600.66;5041543;28;20446;-76
2023/07/06 00:32:33;;;;;;;3.83;2.00;;;;;;;-145.41;100.00;58600.66;5040752;28;20169;-76
2023/07/06 00:35:00;;;;;;;4.68;2.72;;;;;;;-145.41;100.00;58600.66;5041936;28;20037;-76
2023/07/06 00:37:26;;;;;;;6.28;2.40;;;;;;;-145.41;100.00;58600.66;5039010;28;20060;-76
2023/07/06 00:39:52;;;;;;;5.63;2.30;;;;;;;-145.41;100.00;58600.66;5039415;28;20480;-75
2023/07/06 00:42:20;;;;;;;4.72;2.40;;;;;;;-145.41;100.00;58600.66;5043974;28;20081;-75
2023/07/06 00:44:49;;;;;;;4.50;2.10;;;;;;;-145.41;100.00;58600.66;5041183;28;20059;-75
2023/07/06 00:47:15;;;;;;;5.15;2.03;;;;;;;-145.41;100.00;58600.66;5043682;28;20047;-76
2023/07/06 00:49:41;;;;;;;5.47;2.42;;;;;;;-145.41;100.00;58600.66;5036071;28;20041;-76
2023/07/06 00:52:07;;;;;;;4.47;2.40;;;;;;;-145.41;100.00;58600.66;5041834;28;20080;-76
2023/07/06 00:54:37;;;;;;;5.13;2.40;;;;;;;-145.41;100.00;58600.66;5047235;28;20034;-75
2023/07/06 00:57:03;;;;;;;4.20;2.17;;;;;;;-145.41;100.00;58600.66;5044979;28;20083;-75
2023/07/06 00:59:30;;;;;;;7.78;2.53;;;;;;;-145.41;100.00;58600.66;5042589;28;20029;-76
2023/07/06 01:01:59;;;;;;;8.13;2.47;;;;;;;-145.41;100.00;58600.66;5028825;28;20477;-76
2023/07/06 01:04:27;;;;;;;5.45;2.10;;;;;;;-145.41;100.00;58600.66;5042194;28;20056;-76
2023/07/06 01:06:54;;;;;;;5.72;2.60;;;;;;;-145.41;100.00;58600.66;5039438;28;20504;-76
2023/07/06 01:09:21;;;;;;;3.92;1.95;;;;;;;-145.41;100.00;58600.66;5039881;28;20029;-76
2023/07/06 01:11:47;;;;;;;4.13;2.30;;;;;;;-145.41;100.00;58600.66;5045286;28;20033;-75
2023/07/06 01:14:14;;;;;;;6.70;2.40;;;;;;;-145.41;100.00;58600.66;5042334;28;20049;-76
2023/07/06 01:16:45;;;;;;;5.80;2.60;;;;;;;-145.41;100.00;58600.66;5043273;28;20088;-76
2023/07/06 01:19:36;;;;;;;5.67;2.37;;;;;;;-145.41;100.00;58600.66;5040698;28;20024;-76
2023/07/06 01:22:17;;;;;;;3.88;2.38;;;;;;;-145.41;100.00;58600.66;5041063;28;20052;-76
2023/07/06 01:25:13;;;;;;;4.63;2.45;;;;;;;-145.41;100.00;58600.66;5036819;28;20158;-75
2023/07/06 01:28:10;;;;;;;5.15;2.75;;;;;;;-145.41;100.00;58600.66;5044306;28;20098;-76
2023/07/06 01:31:12;;;;;;;4.63;2.92;;;;;;;-145.41;100.00;58600.66;5037258;28;20045;-76
2023/07/06 01:34:10;;;;;;;8.80;2.50;;;;;;;-145.41;100.00;58600.66;5039277;28;20120;-76
2023/07/06 01:37:12;;;;;;;10.05;3.38;;;;;;;-145.41;100.00;58600.66;5036795;28;20049;-76
2023/07/06 01:39:38;;;;;;;4.28;2.13;;;;;;;-145.41;100.00;58600.66;5037560;28;20034;-75
2023/07/06 01:42:12;;;;;;;5.03;2.40;;;;;;;-145.41;100.00;58600.66;5044185;28;20091;-76
2023/07/06 01:44:41;;;;;;;5.13;2.30;;;;;;;-145.41;100.00;58600.66;5041109;28;20120;-76
2023/07/06 01:47:07;;;;;;;4.13;2.17;;;;;;;-145.41;100.00;58600.66;5043507;28;20034;-76
2023/07/06 01:49:33;;;;;;;4.60;2.28;;;;;;;-145.41;100.00;58600.66;5043932;28;20045;-75
2023/07/06 01:52:15;;;;;;;4.90;2.35;;;;;;;-145.41;100.00;58600.66;5042196;28;20124;-75
2023/07/06 01:54:49;;;;;;;5.93;2.43;;;;;;;-145.41;100.00;58600.66;5037830;28;20714;-76
2023/07/06 01:57:22;;;;;;;4.82;2.50;;;;;;;-145.41;100.00;58600.66;5039470;28;20035;-76
2023/07/06 01:59:53;;;;;;;5.28;2.55;;;;;;;-145.41;100.00;58600.66;5061208;28;20123;-76
2023/07/06 02:02:20;;;;;;;4.10;2.07;;;;;;;-145.41;100.00;58600.66;5030772;28;20068;-76
2023/07/06 02:04:46;;;;;;;4.80;2.67;;;;;;;-145.41;100.00;58600.66;5038538;28;20025;-76
2023/07/06 02:07:16;;;;;;;5.50;2.50;;;;;;;-145.41;100.00;58600.66;5041530;28;20040;-76
2023/07/06 02:09:46;;;;;;;5.15;2.30;;;;;;;-145.41;100.00;58600.66;5040865;28;20491;-75
2023/07/06 02:12:15;;;;;;;5.55;2.80;;;;;;;-145.41;100.00;58600.66;5036777;28;20037;-76
2023/07/06 02:14:42;;;;;;;5.57;3.30;;;;;;;-145.41;100.00;58600.66;5040770;28;20410;-76
2023/07/06 02:17:09;;;;;;;5.00;2.58;;;;;;;-145.41;100.00;58600.66;5043082;28;20029;-76
2023/07/06 02:19:35;;;;;;;4.00;2.20;;;;;;;-145.41;100.00;58600.66;5041565;28;20095;-76
2023/07/06 02:22:03;;;;;;;6.10;2.92;;;;;;;-145.41;100.00;58600.66;5030324;28;20534;-76
2023/07/06 02:24:28;;;;;;;5.07;2.60;;;;;;;-145.41;100.00;58600.66;5041137;28;20035;-76
2023/07/06 02:26:54;;;;;;;5.72;2.85;;;;;;;-145.41;100.00;58600.66;5041366;28;20028;-76
2023/07/06 02:29:22;;;;;;;6.03;2.60;;;;;;;-145.41;100.00;58600.66;5043131;28;20040;-76
2023/07/06 02:31:49;;;;;;;4.20;2.20;;;;;;;-145.41;100.00;58600.66;5041379;28;20033;-76
2023/07/06 02:34:14;;;;;;;6.43;2.42;;;;;;;-145.41;100.00;58600.66;5038140;28;20049;-75
2023/07/06 02:36:40;;;;;;;6.82;3.00;;;;;;;-145.41;100.00;58600.66;5039419;28;20472;-75
2023/07/06 02:39:06;;;;;;;5.10;2.53;;;;;;;-145.41;100.00;58600.66;5041598;28;20056;-76
2023/07/06 02:41:32;;;;;;;6.03;2.78;;;;;;;-145.41;100.00;58600.66;5040863;28;20033;-76
2023/07/06 02:43:57;;;;;;;4.40;2.05;;;;;;;-145.41;100.00;58600.66;5042838;28;20419;-76
2023/07/06 02:46:23;;;;;;;5.38;2.47;;;;;;;-145.41;100.00;58600.66;5037757;28;20033;-75
2023/07/06 02:48:50;;;;;;;5.85;2.78;;;;;;;-145.41;100.00;58600.66;5040429;28;20391;-75
2023/07/06 02:51:16;;;;;;;5.60;2.38;;;;;;;-145.41;100.00;58600.66;5045008;28;20036;-76
2023/07/06 02:53:41;;;;;;;5.60;2.30;;;;;;;-145.41;100.00;58600.66;5035694;28;20845;-76
2023/07/06 02:56:07;;;;;;;4.80;2.20;;;;;;;-145.41;100.00;58600.66;5030658;28;20060;-76
2023/07/06 02:58:34;;;;;;;5.93;2.38;;;;;;;-145.41;100.00;58600.66;5035159;28;20037;-75
2023/07/06 03:00:59;;;;;;;5.30;2.60;;;;;;;-145.41;100.00;58600.66;5037524;28;20040;-76
2023/07/06 03:03:26;;;;;;;5.75;2.75;;;;;;;-145.41;100.00;58600.66;5047824;28;20155;-76
2023/07/06 03:05:52;;;;;;;4.85;2.35;;;;;;;-145.41;100.00;58600.66;5034073;28;20483;-76
2023/07/06 03:08:17;;;;;;;5.90;2.45;;;;;;;-145.41;100.00;58600.66;5039416;28;20032;-76
2023/07/06 03:10:46;;;;;;;4.72;2.35;;;;;;;-145.41;100.00;58600.66;5045729;28;20037;-76
2023/07/06 03:13:12;;;;;;;5.60;2.30;;;;;;;-145.41;100.00;58600.66;5034285;28;20100;-76
2023/07/06 03:15:40;;;;;;;6.03;2.65;;;;;;;-145.41;100.00;58600.66;5035756;28;20064;-76
2023/07/06 03:18:06;;;;;;;5.43;2.53;;;;;;;-145.41;100.00;58600.66;5036886;28;20029;-76
2023/07/06 03:20:36;;;;;;;5.10;2.80;;;;;;;-145.41;100.00;58600.66;5031808;28;20463;-76
2023/07/06 03:23:02;;;;;;;7.38;3.33;;;;;;;-145.41;100.00;58600.66;5043022;28;20451;-76
2023/07/06 03:25:28;;;;;;;6.05;2.83;;;;;;;-145.41;100.00;58600.66;5038424;28;20112;-76
2023/07/06 03:27:54;;;;;;;5.15;2.63;;;;;;;-145.41;100.00;58600.66;5035631;28;20044;-76
2023/07/06 03:30:22;;;;;;;4.53;2.22;;;;;;;-145.41;100.00;58600.66;5040989;28;20487;-76
2023/07/06 03:32:48;;;;;;;4.78;2.47;;;;;;;-145.41;100.00;58600.66;5044583;28;20099;-76
2023/07/06 03:35:14;;;;;;;5.05;2.55;;;;;;;-145.41;100.00;58600.66;5038403;28;20030;-76
2023/07/06 03:37:45;;;;;;;5.38;2.50;;;;;;;-145.41;100.00;58600.66;5028252;28;20029;-76
2023/07/06 03:40:11;;;;;;;8.75;3.90;;;;;;;-145.41;100.00;58600.66;5043289;28;20479;-76
2023/07/06 03:42:42;;;;;;;4.47;2.53;;;;;;;-145.41;100.00;58600.66;5034850;28;20091;-75
2023/07/06 03:45:10;;;;;;;5.43;3.10;;;;;;;-145.41;100.00;58600.66;5036072;28;20506;-76
2023/07/06 03:47:37;;;;;;;6.38;3.13;;;;;;;-145.41;100.00;58600.66;5043834;28;20044;-75
2023/07/06 03:50:09;;;;;;;5.97;2.75;;;;;;;-145.41;100.00;58600.66;5039290;28;20114;-76
2023/07/06 03:52:39;;;;;;;9.20;3.97;;;;;;;-145.41;100.00;58600.66;5016388;28;20052;-76
2023/07/06 03:55:26;;;;;;;8.20;4.60;;;;;;;-145.41;100.00;58600.66;5049676;28;20029;-76
2023/07/06 03:57:52;;;;;;;4.53;2.70;;;;;;;-145.41;100.00;58600.66;5031141;28;20041;-76
2023/07/06 04:00:22;;;;;;;8.60;3.30;;;;;;;-145.41;100.00;58600.66;5043277;28;20029;-76
2023/07/06 04:02:53;;;;;;;5.32;2.67;;;;;;;-145.41;100.00;58600.66;5037202;28;20491;-76
2023/07/06 04:05:25;;;;;;;4.97;2.63;;;;;;;-145.41;100.00;58600.66;5039561;28;20082;-76
2023/07/06 04:07:52;;;;;;;5.82;2.58;;;;;;;-145.41;100.00;58600.66;5040269;28;20161;-76
2023/07/06 04:10:20;;;;;;;6.57;2.50;;;;;;;-145.41;100.00;58600.66;5036259;28;20530;-77
2023/07/06 04:12:46;;;;;;;7.35;3.05;;;;;;;-145.41;100.00;58600.66;5031320;28;20075;-76
2023/07/06 04:15:11;;;;;;;5.93;2.90;;;;;;;-145.41;100.00;58600.66;5037417;28;20026;-76
2023/07/06 04:17:37;;;;;;;8.10;3.35;;;;;;;-145.41;100.00;58600.66;5022042;28;20544;-77
2023/07/06 04:20:18;;;;;;;7.40;2.90;;;;;;;-145.41;100.00;58600.66;5033878;28;20033;-77
2023/07/06 04:22:43;;;;;;;13.63;8.43;;;;;;;-145.41;100.00;58600.66;5035220;28;20377;-77
2023/07/06 04:25:08;;;;;;;9.35;5.50;;;;;;;-145.41;100.00;58600.66;5038199;28;20120;-77
2023/07/06 04:27:34;;;;;;;5.57;2.97;;;;;;;-145.41;100.00;58600.66;5037290;28;20039;-77
2023/07/06 04:29:59;;;;;;;7.65;3.22;;;;;;;-145.41;100.00;58600.66;5041129;28;20036;-77
2023/07/06 04:32:27;;;;;;;7.32;3.10;;;;;;;-145.41;100.00;58600.66;5042415;28;20124;-76
2023/07/06 04:34:53;;;;;;;7.05;3.03;;;;;;;-145.41;100.00;58600.66;5039678;28;20055;-77
2023/07/06 04:37:18;;;;;;;8.00;2.50;;;;;;;-145.41;100.00;58600.66;5046243;28;20488;-76
2023/07/06 04:39:43;;;;;;;6.45;2.95;;;;;;;-145.41;100.00;58600.66;5035245;28;20064;-76
2023/07/06 04:42:08;;;;;;;5.57;2.67;;;;;;;-145.41;100.00;58600.66;5040182;28;20029;-77
2023/07/06 04:44:35;;;;;;;7.72;3.05;;;;;;;-145.41;100.00;58600.66;5049533;28;20090;-76
2023/07/06 04:47:00;;;;;;;7.82;2.65;;;;;;;-145.41;100.00;58600.66;5035117;28;20060;-76
2023/07/06 04:49:26;;;;;;;7.75;3.15;;;;;;;-145.41;100.00;58600.66;5040672;28;20164;-76
2023/07/06 04:51:51;;;;;;;6.78;2.17;;;;;;;-145.41;100.00;58600.66;5048424;28;20036;-77
2023/07/06 04:54:17;;;;;;;7.22;3.03;;;;;;;-145.41;100.00;58600.66;5023816;28;20110;-76
2023/07/06 04:56:42;;;;;;;7.43;3.05;;;;;;;-145.41;100.00;58600.66;5041420;28;20045;-76
2023/07/06 04:59:08;;;;;;;5.28;2.72;;;;;;;-145.41;100.00;58600.66;5035676;28;20038;-77
2023/07/06 05:01:34;;;;;;;8.35;2.50;;;;;;;-145.41;100.00;58600.66;5036463;28;20439;-76
2023/07/06 05:03:59;;;;;;;7.88;4.40;;;;;;;-145.41;100.00;58600.66;5035738;28;20503;-77
2023/07/06 05:06:25;;;;;;;5.50;2.42;;;;;;;-145.41;100.00;58600.66;5042086;28;20028;-77
2023/07/06 05:08:52;;;;;;;5.47;2.83;;;;;;;-145.41;100.00;58600.66;5039480;28;20037;-77
2023/07/06 05:11:18;;;;;;;6.25;3.13;;;;;;;-145.41;100.00;58600.66;5046186;28;20063;-77
2023/07/06 05:13:44;;;;;;;6.60;2.30;;;;;;;-145.41;100.00;58600.66;5040707;28;20033;-76
2023/07/06 05:16:10;;;;;;;7.32;2.67;;;;;;;-145.41;100.00;58600.66;5037445;28;20038;-77
2023/07/06 05:18:35;;;;;;;7.20;2.60;;;;;;;-145.41;100.00;58600.66;5044357;28;20377;-77
2023/07/06 05:21:00;;;;;;;6.45;2.80;;;;;;;-145.41;100.00;58600.66;5042465;28;20037;-76
2023/07/06 05:23:29;;;;;;;6.97;2.67;;;;;;;-145.41;100.00;58600.66;5041212;28;20045;-77
2023/07/06 05:25:56;;;;;;;6.28;2.50;;;;;;;-145.41;100.00;58600.66;5047763;28;20029;-77
2023/07/06 05:28:22;;;;;;;7.07;2.53;;;;;;;-145.41;100.00;58600.66;5038935;28;20029;-77
2023/07/06 05:30:48;;;;;;;5.47;2.17;;;;;;;-145.41;100.00;58600.66;5036799;28;20159;-76
2023/07/06 05:33:14;;;;;;;6.60;2.25;;;;;;;-145.41;100.00;58600.66;5039171;28;20030;-77
2023/07/06 05:35:40;;;;;;;4.85;2.38;;;;;;;-145.41;100.00;58600.66;5033136;28;20037;-77
2023/07/06 05:38:10;;;;;;;6.72;2.25;;;;;;;-145.41;100.00;58600.66;5039988;28;20036;-77
2023/07/06 05:40:40;;;;;;;7.55;2.80;;;;;;;-145.41;100.00;58600.66;5048116;28;20430;-77
2023/07/06 05:43:06;;;;;;;4.85;2.47;;;;;;;-145.41;100.00;58600.66;5034594;28;20029;-77
2023/07/06 05:45:32;;;;;;;5.60;2.42;;;;;;;-145.41;100.00;58600.66;5042484;28;20067;-77
2023/07/06 05:47:57;;;;;;;5.30;1.95;;;;;;;-145.41;100.00;58600.66;5041998;28;20073;-77
2023/07/06 05:50:23;;;;;;;4.13;2.40;;;;;;;-145.41;100.00;58600.66;5037618;28;20037;-77
2023/07/06 05:52:49;;;;;;;3.97;1.70;;;;;;;-145.41;100.00;58600.66;5044805;28;20037;-77
2023/07/06 05:55:15;;;;;;;4.97;2.17;;;;;;;-145.41;100.00;58600.66;5039285;28;20714;-77
2023/07/06 05:57:41;;;;;;;4.25;1.70;;;;;;;-145.41;100.00;58600.66;5037097;28;20033;-77
2023/07/06 06:00:09;;;;;;;4.60;1.63;;;;;;;-145.41;100.00;58600.66;5032964;28;20026;-77
2023/07/06 06:02:35;;;;;;;4.35;1.65;;;;;;;-145.41;100.00;58600.66;5037910;28;20166;-77
2023/07/06 06:05:00;;;;;;;4.70;2.00;;;;;;;-145.41;100.00;58600.66;5040351;28;20068;-77
2023/07/06 06:07:26;;;;;;;4.30;1.65;;;;;;;-145.41;100.00;58600.66;5040888;28;20036;-77
2023/07/06 06:09:51;;;;;;;6.45;2.08;;;;;;;-145.41;100.00;58600.66;5040374;28;20037;-77
2023/07/06 06:12:20;;;;;;;4.93;2.10;;;;;;;-145.41;100.00;58600.66;5043554;28;20060;-77
2023/07/06 06:14:50;;;;;;;3.60;1.40;;;;;;;-145.41;100.00;58600.66;5034699;28;20033;-77
2023/07/06 06:17:18;;;;;;;4.20;1.60;;;;;;;-145.41;100.00;58600.66;5040449;28;20124;-77
2023/07/06 06:19:45;;;;;;;3.20;1.20;;;;;;;-145.41;100.00;58600.66;5048137;28;20037;-77
2023/07/06 06:22:11;;;;;;;3.83;1.40;;;;;;;-145.41;100.00;58600.66;5041153;28;20499;-77
2023/07/06 06:24:37;;;;;;;4.82;1.73;;;;;;;-145.41;100.00;58600.66;5041466;28;20549;-77
2023/07/06 06:27:04;;;;;;;4.97;1.88;;;;;;;-145.41;100.00;58600.66;5048257;28;20036;-77
2023/07/06 06:29:30;;;;;;;2.95;1.40;;;;;;;-145.41;100.00;58600.66;5038481;28;20040;-77
2023/07/06 06:31:55;;;;;;;2.90;1.33;;;;;;;-145.41;100.00;58600.66;5042518;28;20034;-77
2023/07/06 06:34:22;;;;;;;4.15;1.80;;;;;;;-145.41;100.00;58600.66;5048633;28;20096;-77
2023/07/06 06:36:48;;;;;;;3.72;1.58;;;;;;;-145.41;100.00;58600.66;5036328;28;20073;-77
2023/07/06 06:39:14;;;;;;;4.57;1.63;;;;;;;-145.41;100.00;58600.66;5040669;28;20032;-77
2023/07/06 06:41:40;;;;;;;3.05;1.38;;;;;;;-145.41;100.00;58600.66;5040995;28;20029;-77
2023/07/06 06:44:07;;;;;;;3.20;1.50;;;;;;;-145.41;100.00;58600.66;5035498;28;20033;-77
2023/07/06 06:46:32;;;;;;;3.72;1.58;;;;;;;-145.41;100.00;58600.66;5040779;28;20044;-77
2023/07/06 06:48:57;;;;;;;5.13;1.58;;;;;;;-145.41;100.00;58600.66;5042203;28;20059;-78
2023/07/06 06:51:24;;;;;;;6.60;1.90;;;;;;;-145.41;100.00;58600.66;5035651;28;20037;-77
2023/07/06 06:53:49;;;;;;;2.10;1.05;;;;;;;-145.41;100.00;58600.66;5043125;28;20110;-77
2023/07/06 06:56:15;;;;;;;3.58;1.40;;;;;;;-145.41;100.00;58600.66;5037451;28;20092;-77
2023/07/06 06:58:41;;;;;;;5.38;1.60;;;;;;;-145.41;100.00;58600.66;5038386;28;20511;-77
2023/07/06 07:01:08;;;;;;;3.10;1.33;;;;;;;-145.41;100.00;58600.66;5044653;28;20041;-77
2023/07/06 07:03:34;;;;;;;3.72;1.33;;;;;;;-145.41;100.00;58600.66;5034747;28;20041;-77
2023/07/06 07:06:03;;;;;;;2.70;1.63;;;;;;;-145.41;100.00;58600.66;5038127;28;20044;-78
2023/07/06 07:08:28;;;;;;;3.65;1.38;;;;;;;-145.41;100.00;58600.66;5031055;28;20050;-77
2023/07/06 07:10:57;;;;;;;3.88;1.80;;;;;;;-145.41;100.00;58600.66;5039037;28;20054;-77
2023/07/06 07:13:23;;;;;;;5.05;1.63;;;;;;;-145.41;100.00;58600.66;5040102;28;20108;-77
2023/07/06 07:15:49;;;;;;;3.58;1.42;;;;;;;-145.41;100.00;58600.66;5045140;28;20519;-77
2023/07/06 07:18:15;;;;;;;4.95;2.00;;;;;;;-145.41;100.00;58600.66;5037936;28;20403;-77
2023/07/06 07:20:43;;;;;;;4.97;1.42;;;;;;;-145.41;100.00;58600.66;5045366;28;20041;-77
2023/07/06 07:23:09;;;;;;;3.53;1.40;;;;;;;-145.41;100.00;58600.66;5045830;28;20495;-77
2023/07/06 07:25:37;;;;;;;3.55;1.17;;;;;;;-145.41;100.00;58600.66;5040288;28;20041;-77
2023/07/06 07:28:04;;;;;;;2.88;1.10;;;;;;;-145.41;100.00;58600.66;5044038;28;20203;-77
2023/07/06 07:30:30;;;;;;;3.40;1.30;;;;;;;-145.41;100.00;58600.66;5035168;28;20033;-77
2023/07/06 07:32:55;;;;;;;2.85;1.60;;;;;;;-145.41;100.00;58600.66;5041140;28;20050;-77
2023/07/06 07:35:21;;;;;;;4.03;1.27;;;;;;;-145.41;100.00;58600.66;5048254;28;20388;-77
2023/07/06 07:37:50;;;;;;;4.60;1.73;;;;;;;-145.41;100.00;58600.66;5039693;28;20484;-77
2023/07/06 07:40:17;;;;;;;3.30;1.38;;;;;;;-145.41;100.00;58600.66;5039666;28;20029;-77
2023/07/06 07:42:46;;;;;;;4.47;1.60;;;;;;;-145.41;100.00;58600.66;5041191;28;20037;-78
2023/07/06 07:45:13;;;;;;;3.60;1.42;;;;;;;-145.41;100.00;58600.66;5037550;28;20033;-77
2023/07/06 07:47:38;;;;;;;3.80;1.30;;;;;;;-145.41;100.00;58600.66;5046766;28;20476;-78
2023/07/06 07:50:05;;;;;;;3.90;1.58;;;;;;;-145.41;100.00;58600.66;5042175;28;20099;-77
2023/07/06 07:52:30;;;;;;;5.03;1.38;;;;;;;-145.41;100.00;58600.66;5041889;28;20038;-77
2023/07/06 07:54:55;;;;;;;2.45;1.20;;;;;;;-145.41;100.00;58600.66;5049396;28;20609;-78
2023/07/06 07:57:21;;;;;;;3.95;1.60;;;;;;;-145.41;100.00;58600.66;5043732;28;20052;-78
2023/07/06 07:59:48;;;;;;;3.35;1.50;;;;;;;-145.41;100.00;58600.66;5042596;28;20037;-78
2023/07/06 08:02:14;;;;;;;4.47;1.02;;;;;;;-145.41;100.00;58600.66;5043316;28;20067;-77
2023/07/06 08:04:39;;;;;;;3.40;1.20;;;;;;;-145.41;100.00;58600.66;5039657;28;20029;-78
2023/07/06 08:07:05;;;;;;;4.18;1.42;;;;;;;-145.41;100.00;58600.66;5034110;28;20045;-77
2023/07/06 08:09:31;;;;;;;3.88;1.42;;;;;;;-145.41;100.00;58600.66;5046653;28;20033;-77
2023/07/06 08:11:56;;;;;;;4.43;1.40;;;;;;;-145.41;100.00;58600.66;5037702;28;20116;-77
2023/07/06 08:14:37;;;;;;;4.20;1.20;;;;;;;-145.41;100.00;58600.66;5043034;28;20033;-78
2023/07/06 08:17:04;;;;;;;7.23;2.43;;;;;;;-145.41;100.00;58600.66;5040049;28;20400;-77
2023/07/06 08:19:32;;;;;;;6.70;2.90;;;;;;;-145.41;100.00;58600.66;5037478;28;20048;-77
2023/07/06 08:21:58;;;;;;;3.72;1.58;;;;;;;-145.41;100.00;58600.66;5038288;28;20399;-78
2023/07/06 08:24:24;;;;;;;5.22;2.13;;;;;;;-145.41;100.00;58600.66;5038121;28;20080;-78
2023/07/06 08:26:49;;;;;;;3.65;0.90;;;;;;;-145.41;100.00;58600.66;5039787;28;20489;-77
2023/07/06 08:29:15;;;;;;;2.80;1.27;;;;;;;-145.41;100.00;58600.66;5044105;28;20179;-77
2023/07/06 08:31:40;;;;;;;5.25;1.42;;;;;;;-145.41;100.00;58600.66;5038873;28;20037;-77
2023/07/06 08:34:06;;;;;;;4.20;1.58;;;;;;;-145.41;100.00;58600.66;5033967;28;20598;-77
2023/07/06 08:36:33;;;;;;;2.58;1.13;;;;;;;-145.41;100.00;58600.66;5038191;28;20486;-77
2023/07/06 08:39:00;;;;;;;4.53;1.60;;;;;;;-145.41;100.00;58600.66;5047391;28;20032;-78
2023/07/06 08:41:31;;;;;;;2.97;1.13;;;;;;;-145.41;100.00;58600.66;5042384;28;20037;-77
2023/07/06 08:43:59;;;;;;;3.35;1.00;;;;;;;-145.41;100.00;58600.66;5046608;28;20037;-77
2023/07/06 08:46:30;;;;;;;4.20;1.90;;;;;;;-145.41;100.00;58600.66;5042575;28;20532;-77
2023/07/06 08:48:56;;;;;;;3.78;1.77;;;;;;;-145.41;100.00;58600.66;5038885;28;20488;-78
2023/07/06 08:51:27;;;;;;;4.38;1.75;;;;;;;-145.41;100.00;58600.66;5041687;28;20052;-77
2023/07/06 08:53:56;;;;;;;6.78;1.88;;;;;;;-145.41;100.00;58600.66;5046951;28;20506;-77
2023/07/06 08:56:25;;;;;;;4.15;1.20;;;;;;;-145.41;100.00;58600.66;5041143;28;20040;-78
2023/07/06 08:58:51;;;;;;;3.92;1.45;;;;;;;-145.41;100.00;58600.66;5045021;28;20040;-78
2023/07/06 09:01:22;;;;;;;5.75;1.45;;;;;;;-145.41;100.00;58600.66;5046780;28;20041;-78
2023/07/06 09:03:59;;;;;;;4.68;1.40;;;;;;;-145.41;100.00;58600.66;5043166;28;20028;-77
2023/07/06 09:06:41;;;;;;;3.47;1.88;;;;;;;-145.41;100.00;58600.66;5038306;28;20048;-78
2023/07/06 09:09:08;;;;;;;3.38;1.70;;;;;;;-145.41;100.00;58600.66;5034398;28;20045;-78
2023/07/06 09:11:37;;;;;;;3.65;1.20;;;;;;;-145.41;100.00;58600.66;5045694;28;20041;-78
2023/07/06 09:14:10;;;;;;;3.83;1.50;;;;;;;-145.41;100.00;58600.66;5052699;28;20060;-78
2023/07/06 09:16:54;;;;;;;4.50;1.27;;;;;;;-145.41;100.00;58600.66;5047236;28;20030;-78
2023/07/06 09:19:20;;;;;;;2.72;0.93;;;;;;;-145.41;100.00;58600.66;5047994;28;20500;-78
2023/07/06 09:21:47;;;;;;;3.72;1.20;;;;;;;-145.41;100.00;58600.66;5053675;28;20052;-78
2023/07/06 09:24:13;;;;;;;3.28;0.98;;;;;;;-145.41;100.00;58600.66;5043213;28;20037;-78
2023/07/06 09:26:50;;;;;;;3.88;1.48;;;;;;;-145.41;100.00;58600.66;5048490;28;20034;-78
2023/07/06 09:29:28;;;;;;;5.00;1.40;;;;;;;-145.41;100.00;58600.66;5049691;28;20048;-78
2023/07/06 09:32:24;;;;;;;2.80;1.05;;;;;;;-145.41;100.00;58600.66;5039010;28;20514;-78
2023/07/06 09:34:55;;;;;;;4.47;1.20;;;;;;;-145.41;100.00;58600.66;5039742;28;20026;-78
2023/07/06 09:37:20;;;;;;;5.30;1.25;;;;;;;-145.41;100.00;58600.66;5049237;28;20041;-78
2023/07/06 09:40:00;;;;;;;4.32;1.33;;;;;;;-145.41;100.00;58600.66;5047444;28;20033;-78
2023/07/06 09:42:25;;;;;;;3.20;1.27;;;;;;;-145.41;100.00;58600.66;5049679;28;20636;-78
2023/07/06 09:44:58;;;;;;;7.25;1.55;;;;;;;-145.41;100.00;58600.66;5050088;28;20045;-78
2023/07/06 09:47:23;;;;;;;4.68;1.30;;;;;;;-145.41;100.00;58600.66;5045834;28;20060;-78
2023/07/06 09:50:01;;;;;;;4.55;1.40;;;;;;;-145.41;100.00;58600.66;5056767;28;20041;-78
2023/07/06 09:52:28;;;;;;;3.63;1.60;;;;;;;-145.41;100.00;58600.66;5046131;28;20057;-79
2023/07/06 09:55:02;;;;;;;4.13;1.27;;;;;;;-145.41;100.00;58600.66;5046311;28;20029;-78
2023/07/06 09:57:33;;;;;;;2.85;1.10;;;;;;;-145.41;100.00;58600.66;5044611;28;20029;-78
2023/07/06 10:00:00;;;;;;;3.57;1.73;;;;;;;-145.41;100.00;58600.66;5044343;28;20041;-78
2023/07/06 10:02:51;;;;;;;4.45;1.77;;;;;;;-145.41;100.00;58600.66;5051434;28;20068;-78
2023/07/06 10:05:35;;;;;;;2.77;1.30;;;;;;;-145.41;100.00;58600.66;5039420;28;20030;-78
2023/07/06 10:08:27;;;;;;;3.95;1.27;;;;;;;-145.41;100.00;58600.66;5043198;28;20048;-78
2023/07/06 10:11:05;;;;;;;4.00;1.20;;;;;;;-145.41;100.00;58600.66;5051430;28;20045;-79
2023/07/06 10:13:58;;;;;;;2.33;1.17;;;;;;;-145.41;100.00;58600.66;5043774;28;20528;-79
2023/07/06 10:16:47;;;;;;;4.72;1.50;;;;;;;-145.41;100.00;58600.66;5049366;28;20067;-79
2023/07/06 10:20:03;;;;;;;5.45;1.23;;;;;;;-145.41;100.00;58600.66;5052533;28;20136;-78
2023/07/06 10:22:40;;;;;;;2.47;1.00;;;;;;;-145.41;100.00;58600.66;5033699;28;20076;-79
2023/07/06 10:25:33;;;;;;;3.05;1.15;;;;;;;-145.41;100.00;58600.66;5045354;28;20385;-79
2023/07/06 10:28:19;;;;;;;2.88;1.30;;;;;;;-145.41;100.00;58600.66;5038915;28;20500;-79
2023/07/06 10:30:49;;;;;;;3.05;1.20;;;;;;;-145.41;100.00;58600.66;5041327;28;20097;-79
2023/07/06 10:33:22;;;;;;;5.75;1.23;;;;;;;-145.41;100.00;58600.66;5043162;28;20166;-79
2023/07/06 10:35:50;;;;;;;5.10;1.27;;;;;;;-145.41;100.00;58600.66;5040304;28;20033;-79
2023/07/06 10:38:16;;;;;;;4.57;1.83;;;;;;;-145.41;100.00;58600.66;5029059;28;20032;-78
2023/07/06 10:40:42;;;;;;;4.53;1.00;;;;;;;-145.41;100.00;58600.66;5038340;28;20040;-79
2023/07/06 10:43:16;;;;;;;3.88;1.00;;;;;;;-145.41;100.00;58600.66;5043956;28;20033;-80
2023/07/06 10:45:48;;;;;;;5.03;1.20;;;;;;;-145.41;100.00;58600.66;5052814;28;20037;-79
2023/07/06 10:48:15;;;;;;;3.17;1.23;;;;;;;-145.41;100.00;58600.66;5044641;28;20033;-80
2023/07/06 10:51:13;;;;;;;2.75;1.10;;;;;;;-145.41;100.00;58600.66;5045405;28;20029;-79
2023/07/06 10:53:41;;;;;;;2.35;0.95;;;;;;;-145.41;100.00;58600.66;5048629;28;20051;-76
2023/07/06 10:56:21;;;;;;;3.10;1.08;;;;;;;-145.41;100.00;58600.66;5034548;28;20044;-78
2023/07/06 10:58:54;;;;;;;3.72;0.95;;;;;;;-145.41;100.00;58600.66;5035221;28;20041;-74
2023/07/06 11:01:21;;;;;;;2.58;1.17;;;;;;;-145.41;100.00;58600.66;5037203;28;20484;-75
2023/07/06 11:03:47;;;;;;;3.75;1.27;;;;;;;-145.41;100.00;58600.66;5039327;28;20033;-73
2023/07/06 11:06:37;;;;;;;2.95;1.00;;;;;;;-145.41;100.00;58600.66;5040271;28;20036;-73
2023/07/06 11:09:08;;;;;;;2.55;0.93;;;;;;;-145.41;100.00;58600.66;5038517;28;20037;-73
2023/07/06 11:11:38;;;;;;;3.78;0.90;;;;;;;-145.41;100.00;58600.66;5047278;28;20029;-73
2023/07/06 11:14:35;;;;;;;3.70;0.90;;;;;;;-145.41;100.00;58600.66;5035327;28;20035;-73
2023/07/06 11:17:13;;;;;;;4.47;1.35;;;;;;;-145.41;100.00;58600.66;5037139;28;20055;-73
2023/07/06 11:19:48;;;;;;;2.85;1.10;;;;;;;-145.41;100.00;58600.66;5039332;28;20040;-74